Time;durP1;ratioP1;P1;durP2;ratioP2;P2;SDS_P1;SDS_P2;PMS_P1;PMS_P2;Temp;Humidity;BMP_temperature;BMP_pressure;BME280_temperature;BME280_humidity;BME280_pressure;Samples;Min_cycle;Max_cycle;Signal;HPM_P1;HPM_P2
2022/04/16 00:02:45;0.00;0.00;0.62;0.00;0.00;0.62;2.00;1.57;;;27.20;24.30;;;;;;2265113;61;20383;-63
2022/04/16 00:05:30;0.00;0.00;0.62;0.00;0.00;0.62;3.00;1.90;;;27.20;24.90;;;;;;2264939;61;20363;-58
2022/04/16 00:08:16;0.00;0.00;0.62;0.00;0.00;0.62;2.20;1.60;;;27.20;24.40;;;;;;2264706;61;20522;-60
2022/04/16 00:11:00;0.00;0.00;0.62;0.00;0.00;0.62;2.90;2.13;;;27.20;24.50;;;;;;2261109;61;20993;-59
2022/04/16 00:13:46;0.00;0.00;0.62;0.00;0.00;0.62;2.27;2.07;;;27.20;24.50;;;;;;2265019;61;20387;-61
2022/04/16 00:16:30;0.00;0.00;0.62;0.00;0.00;0.62;1.87;1.67;;;27.20;24.50;;;;;;2264854;61;20342;-59
2022/04/16 00:19:15;0.00;0.00;0.62;0.00;0.00;0.62;2.90;2.47;;;27.20;24.60;;;;;;2260998;61;20368;-59
2022/04/16 00:22:00;0.00;0.00;0.62;0.00;0.00;0.62;3.17;2.50;;;27.20;24.60;;;;;;2265150;61;20380;-58
2022/04/16 00:24:50;0.00;0.00;0.62;0.00;0.00;0.62;3.07;2.77;;;27.20;24.50;;;;;;2264592;61;20368;-60
2022/04/16 00:27:35;0.00;0.00;0.62;0.00;0.00;0.62;4.07;2.87;;;27.20;24.50;;;;;;2264945;61;20390;-55
2022/04/16 00:30:19;0.00;0.00;0.62;0.00;0.00;0.62;3.20;2.60;;;27.20;24.40;;;;;;2264994;61;20388;-55
2022/04/16 00:33:05;0.00;0.00;0.62;0.00;0.00;0.62;27.27;3.40;;;27.20;24.30;;;;;;2264145;61;20702;-58
2022/04/16 00:35:49;0.00;0.00;0.62;0.00;0.00;0.62;3.97;2.83;;;27.10;24.20;;;;;;2261970;61;20904;-59
2022/04/16 00:38:34;0.00;0.00;0.62;0.00;0.00;0.62;4.07;3.63;;;27.10;24.20;;;;;;2264368;61;20398;-58
2022/04/16 00:41:23;0.00;0.00;0.62;0.00;0.00;0.62;3.67;2.93;;;27.10;24.10;;;;;;2264378;61;20375;-60
2022/04/16 00:44:08;0.00;0.00;0.62;0.00;0.00;0.62;3.63;3.30;;;27.10;24.10;;;;;;2264875;61;20399;-58
2022/04/16 00:46:52;0.00;0.00;0.62;0.00;0.00;0.62;4.50;3.47;;;27.00;24.00;;;;;;2264426;61;20372;-58
2022/04/16 00:49:37;0.00;0.00;0.62;0.00;0.00;0.62;4.40;3.63;;;27.00;24.00;;;;;;2264233;61;20368;-56
2022/04/16 00:52:21;0.00;0.00;0.62;0.00;0.00;0.62;4.77;3.40;;;27.00;23.90;;;;;;2264947;61;20388;-58
2022/04/16 00:55:08;0.00;0.00;0.62;0.00;0.00;0.62;4.87;4.10;;;27.00;23.90;;;;;;2263837;61;20363;-63
2022/04/16 00:57:55;0.00;0.00;0.62;0.00;0.00;0.62;4.20;3.70;;;27.00;23.90;;;;;;2264566;61;20905;-57
2022/04/16 01:00:40;0.00;0.00;0.62;0.00;0.00;0.62;4.00;3.30;;;26.90;23.80;;;;;;2264669;61;20396;-58
2022/04/16 01:03:26;0.00;0.00;0.62;0.00;0.00;0.62;4.03;3.40;;;26.90;23.70;;;;;;2264106;61;20356;-57
2022/04/16 01:06:15;0.00;0.00;0.62;0.00;0.00;0.62;4.70;3.43;;;26.90;23.70;;;;;;2265262;61;20771;-54
2022/04/16 01:09:00;0.00;0.00;0.62;0.00;0.00;0.62;4.03;3.33;;;26.90;23.70;;;;;;2263980;61;20402;-60
2022/04/16 01:11:44;0.00;0.00;0.62;0.00;0.00;0.62;4.97;3.30;;;26.90;23.70;;;;;;2264347;61;20395;-55
2022/04/16 01:14:32;0.00;0.00;0.62;0.00;0.00;0.62;4.60;3.60;;;26.80;23.60;;;;;;2264995;61;20410;-55
2022/04/16 01:17:17;0.00;0.00;0.62;0.00;0.00;0.62;4.13;3.00;;;26.80;23.50;;;;;;2264445;61;20414;-60
2022/04/16 01:20:03;0.00;0.00;0.62;0.00;0.00;0.62;3.40;3.00;;;26.80;23.60;;;;;;2265286;61;20367;-59
2022/04/16 01:22:51;0.00;0.00;0.62;0.00;0.00;0.62;4.90;3.40;;;26.80;23.60;;;;;;2264963;61;20574;-61
2022/04/16 01:25:36;0.00;0.00;0.62;0.00;0.00;0.62;4.00;3.50;;;26.80;23.60;;;;;;2264240;61;20372;-59
2022/04/16 01:28:21;0.00;0.00;0.62;0.00;0.00;0.62;4.10;2.83;;;26.70;23.50;;;;;;2264637;61;20426;-60
2022/04/16 01:31:05;0.00;0.00;0.62;0.00;0.00;0.62;4.33;2.80;;;26.70;23.50;;;;;;2264467;61;20396;-59
2022/04/16 01:33:50;0.00;0.00;0.62;0.00;0.00;0.62;4.10;3.37;;;26.70;23.50;;;;;;2264681;61;20904;-56
2022/04/16 01:36:34;0.00;0.00;0.62;0.00;0.00;0.62;3.20;2.90;;;26.70;23.40;;;;;;2265172;61;20364;-57
2022/04/16 01:39:20;0.00;0.00;0.62;0.00;0.00;0.62;4.30;2.87;;;26.60;23.30;;;;;;2263849;61;20355;-57
2022/04/16 01:42:05;0.00;0.00;0.62;0.00;0.00;0.62;2.90;2.57;;;26.60;23.30;;;;;;2265119;61;20388;-59
2022/04/16 01:44:52;0.00;0.00;0.62;0.00;0.00;0.62;2.97;2.43;;;26.60;23.20;;;;;;2264769;61;20903;-58
2022/04/16 01:47:38;0.00;0.00;0.62;0.00;0.00;0.62;3.87;2.80;;;26.60;23.20;;;;;;2264142;61;20426;-60
2022/04/16 01:50:23;0.00;0.00;0.62;0.00;0.00;0.62;2.60;2.00;;;26.50;23.10;;;;;;2264873;61;20516;-54
2022/04/16 01:53:08;0.00;0.00;0.62;0.00;0.00;0.62;2.47;2.27;;;26.50;23.10;;;;;;2264302;61;20403;-57
2022/04/16 01:55:54;0.00;0.00;0.62;0.00;0.00;0.62;2.40;1.90;;;26.40;23.00;;;;;;2264609;61;20364;-57
2022/04/16 01:58:38;0.00;0.00;0.62;0.00;0.00;0.62;2.80;2.10;;;26.40;23.00;;;;;;2261313;61;20409;-57
2022/04/16 02:01:23;0.00;0.00;0.62;0.00;0.00;0.62;3.10;2.13;;;26.40;23.00;;;;;;2264324;61;20411;-59
2022/04/16 02:04:07;0.00;0.00;0.62;0.00;0.00;0.62;2.50;1.70;;;26.30;23.00;;;;;;2265368;61;20364;-58
2022/04/16 02:06:52;0.00;0.00;0.62;0.00;0.00;0.62;2.90;2.13;;;26.30;23.00;;;;;;2264672;61;20429;-58
2022/04/16 02:09:37;0.00;0.00;0.62;0.00;0.00;0.62;2.67;2.00;;;26.30;22.90;;;;;;2263303;61;20360;-58
2022/04/16 02:12:23;0.00;0.00;0.62;0.00;0.00;0.62;2.33;1.60;;;26.30;22.90;;;;;;2264553;61;20388;-57
2022/04/16 02:15:10;0.00;0.00;0.62;0.00;0.00;0.62;2.30;1.90;;;26.30;23.00;;;;;;2264595;61;20368;-60
2022/04/16 02:17:56;0.00;0.00;0.62;0.00;0.00;0.62;2.00;1.73;;;26.20;23.00;;;;;;2264062;61;20895;-54
2022/04/16 02:20:43;0.00;0.00;0.62;0.00;0.00;0.62;3.40;2.00;;;26.20;22.90;;;;;;2264599;61;20353;-54
2022/04/16 02:23:28;0.00;0.00;0.62;0.00;0.00;0.62;2.07;1.67;;;26.20;22.90;;;;;;2263768;61;20399;-59
2022/04/16 02:26:13;0.00;0.00;0.62;0.00;0.00;0.62;2.47;1.83;;;26.20;22.90;;;;;;2264668;61;20767;-58
2022/04/16 02:28:59;0.00;0.00;0.62;0.00;0.00;0.62;1.97;1.63;;;26.20;22.90;;;;;;2263998;61;20395;-63
2022/04/16 02:31:45;0.00;0.00;0.62;0.00;0.00;0.62;2.53;1.70;;;26.10;22.80;;;;;;2264040;61;21135;-57
2022/04/16 02:34:30;0.00;0.00;0.62;0.00;0.00;0.62;3.27;1.70;;;26.10;22.80;;;;;;2264740;61;20357;-54
2022/04/16 02:37:14;0.00;0.00;0.62;0.00;0.00;0.62;2.77;1.90;;;26.10;22.80;;;;;;2264152;61;21014;-59
2022/04/16 02:39:59;0.00;0.00;0.62;0.00;0.00;0.62;1.93;1.50;;;26.00;22.80;;;;;;2264065;61;20367;-59
2022/04/16 02:42:45;0.00;0.00;0.62;0.00;0.00;0.62;2.67;1.50;;;26.00;22.80;;;;;;2264487;61;20963;-62
2022/04/16 02:48:34;0.00;0.00;0.62;0.00;0.00;0.62;1.70;1.10;;;26.00;22.80;;;;;;2264255;61;20411;-58
2022/04/16 02:51:19;0.00;0.00;0.62;0.00;0.00;0.62;2.30;1.57;;;26.00;22.80;;;;;;2264219;61;20803;-61
2022/04/16 02:54:03;0.00;0.00;0.62;0.00;0.00;0.62;1.57;1.20;;;25.90;22.70;;;;;;2263961;61;20375;-59
2022/04/16 02:56:48;0.00;0.00;0.62;0.00;0.00;0.62;2.40;1.23;;;25.90;22.70;;;;;;2264629;61;20410;-61
2022/04/16 02:59:35;0.00;0.00;0.62;0.00;0.00;0.62;1.60;1.20;;;25.90;22.70;;;;;;2264111;61;20770;-62
2022/04/16 03:02:21;0.00;0.00;0.62;0.00;0.00;0.62;2.10;1.63;;;25.80;22.70;;;;;;2264506;61;20380;-60
2022/04/16 03:05:08;0.00;0.00;0.62;0.00;0.00;0.62;2.40;1.47;;;25.80;22.70;;;;;;2264591;61;20827;-56
2022/04/16 03:07:53;0.00;0.00;0.62;0.00;0.00;0.62;1.70;1.07;;;25.80;22.70;;;;;;2263641;61;20455;-56
2022/04/16 03:10:38;0.00;0.00;0.62;0.00;0.00;0.62;1.93;1.30;;;25.80;22.70;;;;;;2264434;61;20927;-63
2022/04/16 03:13:22;0.00;0.00;0.62;0.00;0.00;0.62;1.67;1.30;;;25.70;22.60;;;;;;2261575;61;20417;-60
2022/04/16 03:19:12;0.00;0.00;0.62;0.00;0.00;0.62;1.83;1.37;;;25.70;22.60;;;;;;2264671;61;20359;-59
2022/04/16 03:21:57;0.00;0.00;0.62;0.00;0.00;0.62;2.80;1.63;;;25.70;22.60;;;;;;2264797;61;20924;-60
2022/04/16 03:24:42;0.00;0.00;0.62;0.00;0.00;0.62;1.93;1.40;;;25.60;22.60;;;;;;2264706;61;20887;-59
2022/04/16 03:27:26;0.00;0.00;0.62;0.00;0.00;0.62;1.67;1.13;;;25.60;22.60;;;;;;2262042;61;20442;-61
2022/04/16 03:30:11;0.00;0.00;0.62;0.00;0.00;0.62;1.50;0.90;;;25.60;22.60;;;;;;2264187;61;20360;-60
2022/04/16 03:32:56;0.00;0.00;0.62;0.00;0.00;0.62;1.63;1.13;;;25.60;22.60;;;;;;2265191;61;20383;-59
2022/04/16 03:35:41;0.00;0.00;0.62;0.00;0.00;0.62;2.70;1.40;;;25.50;22.50;;;;;;2265236;61;20355;-60
2022/04/16 03:38:26;0.00;0.00;0.62;0.00;0.00;0.62;1.70;1.20;;;25.50;22.50;;;;;;2517319;53;20365;-61
2022/04/16 03:41:11;0.00;0.00;0.62;0.00;0.00;0.62;1.70;1.07;;;25.50;22.50;;;;;;2261147;61;20405;-58
2022/04/16 03:43:56;0.00;0.00;0.62;0.00;0.00;0.62;1.60;1.10;;;25.50;22.50;;;;;;2260774;61;20361;-60
2022/04/16 03:46:40;0.00;0.00;0.62;0.00;0.00;0.62;2.53;1.00;;;25.40;22.50;;;;;;2260557;61;20501;-61
2022/04/16 03:49:25;0.00;0.00;0.62;0.00;0.00;0.62;1.70;1.10;;;25.40;22.50;;;;;;2260999;61;20893;-58
2022/04/16 03:52:11;0.00;0.00;0.62;0.00;0.00;0.62;2.10;1.20;;;25.40;22.50;;;;;;2260401;61;20468;-60
2022/04/16 04:01:03;0.00;0.00;0.62;0.00;0.00;0.62;1.57;1.17;;;25.30;22.40;;;;;;2260060;61;20765;-58
2022/04/16 04:03:48;0.00;0.00;0.62;0.00;0.00;0.62;1.87;1.20;;;25.30;22.40;;;;;;2260725;61;20813;-59
2022/04/16 04:06:32;0.00;0.00;0.62;0.00;0.00;0.62;2.00;1.10;;;25.20;22.40;;;;;;2260025;61;20373;-59
2022/04/16 04:09:18;0.00;0.00;0.62;0.00;0.00;0.62;1.80;1.40;;;25.20;22.40;;;;;;2256304;61;20361;-58
2022/04/16 04:12:04;0.00;0.00;0.62;0.00;0.00;0.62;1.77;1.30;;;25.20;22.40;;;;;;2256851;61;20402;-63
2022/04/16 04:14:49;0.00;0.00;0.62;0.00;0.00;0.62;2.00;1.20;;;25.20;22.40;;;;;;2256396;61;20381;-62
2022/04/16 04:17:33;0.00;0.00;0.62;0.00;0.00;0.62;1.70;1.20;;;25.10;22.30;;;;;;2257292;61;20478;-59
2022/04/16 04:20:18;0.00;0.00;0.62;0.00;0.00;0.62;2.47;1.43;;;25.10;22.30;;;;;;2256479;61;20365;-59
2022/04/16 04:23:03;0.00;0.00;0.62;0.00;0.00;0.62;1.60;1.30;;;25.10;22.30;;;;;;2256011;61;20855;-61
2022/04/16 04:25:49;0.00;0.00;0.62;0.00;0.00;0.62;1.90;1.13;;;25.10;22.30;;;;;;2257415;61;20760;-58
2022/04/16 04:28:34;0.00;0.00;0.62;0.00;0.00;0.62;2.27;1.50;;;25.10;22.30;;;;;;2255936;61;20780;-63
2022/04/16 04:31:19;0.00;0.00;0.62;0.00;0.00;0.62;1.80;1.40;;;25.00;22.30;;;;;;2256052;61;20389;-59
2022/04/16 04:34:03;0.00;0.00;0.62;0.00;0.00;0.62;1.63;1.10;;;25.00;22.30;;;;;;2257104;61;20365;-57
2022/04/16 04:36:48;0.00;0.00;0.62;0.00;0.00;0.62;2.63;1.47;;;25.00;22.30;;;;;;2256095;61;20842;-58
2022/04/16 04:39:32;0.00;0.00;0.62;0.00;0.00;0.62;1.60;1.10;;;25.00;22.30;;;;;;2260764;61;20448;-57
2022/04/16 04:42:24;0.00;0.00;0.62;0.00;0.00;0.62;2.97;1.50;;;24.90;22.20;;;;;;2260458;61;20372;-59
2022/04/16 04:45:10;0.00;0.00;0.62;0.00;0.00;0.62;2.00;1.30;;;24.90;22.20;;;;;;2260175;61;20777;-58
2022/04/16 04:47:55;0.00;0.00;0.62;0.00;0.00;0.62;1.60;1.07;;;24.90;22.20;;;;;;2260257;61;20361;-61
2022/04/16 04:50:40;0.00;0.00;0.62;0.00;0.00;0.62;2.47;1.60;;;24.80;22.10;;;;;;2259859;61;20447;-65
2022/04/16 04:53:24;0.00;0.00;0.62;0.00;0.00;0.62;2.07;1.57;;;24.80;22.10;;;;;;2260353;61;20985;-61
2022/04/16 04:56:09;0.00;0.00;0.62;0.00;0.00;0.62;2.20;1.40;;;24.80;22.10;;;;;;2261108;61;20449;-60
2022/04/16 04:58:55;0.00;0.00;0.62;0.00;0.00;0.62;2.33;1.47;;;24.80;22.10;;;;;;2259309;61;20418;-61
2022/04/16 05:01:40;0.00;0.00;0.62;0.00;0.00;0.62;2.97;1.40;;;24.70;22.00;;;;;;2260852;61;20469;-60
2022/04/16 05:04:25;0.00;0.00;0.62;0.00;0.00;0.62;4.03;1.70;;;24.70;22.00;;;;;;2260592;61;20373;-61
2022/04/16 05:07:09;0.00;0.00;0.62;0.00;0.00;0.62;2.97;1.60;;;24.70;22.00;;;;;;2261708;61;20458;-57
2022/04/16 05:09:54;0.00;0.00;0.62;0.00;0.00;0.62;1.60;1.10;;;24.70;22.00;;;;;;2264562;61;20551;-61
2022/04/16 05:12:38;0.00;0.00;0.62;0.00;0.00;0.62;2.23;1.20;;;24.70;22.00;;;;;;2264655;61;20476;-59
2022/04/16 05:15:25;0.00;0.00;0.62;0.00;0.00;0.62;1.70;1.03;;;24.70;22.00;;;;;;2264597;61;20379;-58
2022/04/16 05:18:09;0.00;0.00;0.62;0.00;0.00;0.62;1.70;1.03;;;24.70;22.00;;;;;;2264620;61;20880;-60
2022/04/16 05:20:54;0.00;0.00;0.62;0.00;0.00;0.62;1.80;1.30;;;24.60;22.00;;;;;;2261209;61;20444;-60
2022/04/16 05:23:39;0.00;0.00;0.62;0.00;0.00;0.62;2.03;1.40;;;24.60;22.00;;;;;;2264793;61;20360;-59
2022/04/16 05:26:24;0.00;0.00;0.62;0.00;0.00;0.62;1.77;1.10;;;24.60;22.00;;;;;;2264884;61;20360;-58
2022/04/16 05:29:09;0.00;0.00;0.62;0.00;0.00;0.62;1.80;1.20;;;24.60;22.00;;;;;;2263692;61;20569;-56
2022/04/16 05:31:55;0.00;0.00;0.62;0.00;0.00;0.62;1.60;1.17;;;24.50;21.90;;;;;;2264669;61;20538;-60
2022/04/16 05:34:39;0.00;0.00;0.62;0.00;0.00;0.62;2.17;1.13;;;24.50;21.90;;;;;;2261336;61;20371;-57
2022/04/16 05:37:24;0.00;0.00;0.62;0.00;0.00;0.62;3.10;1.50;;;24.50;21.90;;;;;;2260359;61;20460;-58
2022/04/16 05:40:10;0.00;0.00;0.62;0.00;0.00;0.62;2.47;1.63;;;24.50;22.00;;;;;;2264575;61;20432;-62
2022/04/16 05:42:55;0.00;0.00;0.62;0.00;0.00;0.62;1.60;1.30;;;24.40;21.90;;;;;;2264411;61;21305;-60
2022/04/16 05:45:39;0.00;0.00;0.62;0.00;0.00;0.62;1.60;1.10;;;24.40;22.00;;;;;;2264584;61;20434;-60
2022/04/16 05:48:25;0.00;0.00;0.62;0.00;0.00;0.62;1.40;1.00;;;24.40;22.00;;;;;;2264449;61;20360;-59
2022/04/16 05:51:10;0.00;0.00;0.62;0.00;0.00;0.62;1.83;1.30;;;24.40;22.00;;;;;;2260718;61;20942;-57
2022/04/16 05:53:55;0.00;0.00;0.62;0.00;0.00;0.62;2.13;1.57;;;24.40;22.00;;;;;;2264774;61;20891;-59
2022/04/16 05:56:40;0.00;0.00;0.62;0.00;0.00;0.62;2.10;1.47;;;24.40;22.10;;;;;;2264297;61;20892;-58
2022/04/16 05:59:24;0.00;0.00;0.62;0.00;0.00;0.62;2.00;1.20;;;24.30;21.80;;;;;;2260328;61;20880;-57
2022/04/16 06:02:10;0.00;0.00;0.62;0.00;0.00;0.62;1.50;1.03;;;24.30;21.80;;;;;;2264720;61;20468;-56
2022/04/16 06:04:55;0.00;0.00;0.62;0.00;0.00;0.62;2.00;1.17;;;24.30;21.80;;;;;;2263952;61;20489;-59
2022/04/16 06:07:40;0.00;0.00;0.62;0.00;0.00;0.62;1.70;1.10;;;24.20;21.70;;;;;;2264429;61;20582;-59
2022/04/16 06:10:25;0.00;0.00;0.62;0.00;0.00;0.62;2.07;1.10;;;24.20;21.70;;;;;;2264771;61;20428;-67
2022/04/16 06:13:11;0.00;0.00;0.62;0.00;0.00;0.62;1.60;1.03;;;24.20;21.70;;;;;;2260815;61;20364;-61
2022/04/16 06:15:55;0.00;0.00;0.62;0.00;0.00;0.62;2.47;1.47;;;24.20;21.70;;;;;;2263368;61;20391;-59
2022/04/16 06:18:40;0.00;0.00;0.62;0.00;0.00;0.62;2.57;1.20;;;24.10;21.70;;;;;;2264089;61;20368;-66
2022/04/16 06:21:26;0.00;0.00;0.62;0.00;0.00;0.62;1.67;1.00;;;24.10;21.60;;;;;;2263545;61;20437;-73
2022/04/16 06:24:10;0.00;0.00;0.62;0.00;0.00;0.62;1.53;1.00;;;24.10;21.70;;;;;;2265263;61;20415;-63
2022/04/16 06:26:55;0.00;0.00;0.62;0.00;0.00;0.62;2.77;1.40;;;24.10;21.90;;;;;;2261672;61;20360;-65
2022/04/16 06:29:39;0.00;0.00;0.62;0.00;0.00;0.62;1.40;0.80;;;24.10;21.90;;;;;;2263785;61;20345;-62
2022/04/16 06:32:24;0.00;0.00;0.62;0.00;0.00;0.62;1.90;1.30;;;24.00;21.90;;;;;;2264468;61;20400;-62
2022/04/16 06:35:12;0.00;0.00;0.62;0.00;0.00;0.62;1.70;1.20;;;24.00;21.80;;;;;;2263877;61;20396;-53
2022/04/16 06:37:58;0.00;0.00;0.62;0.00;0.00;0.62;1.50;0.87;;;24.00;21.80;;;;;;2264391;61;20394;-65
2022/04/16 06:40:43;0.00;0.00;0.62;0.00;0.00;0.62;2.10;1.20;;;24.00;21.80;;;;;;2261898;61;20414;-62
2022/04/16 06:43:27;0.00;0.00;0.62;0.00;0.00;0.62;1.50;1.07;;;24.00;21.80;;;;;;2264048;61;20852;-65
2022/04/16 06:46:12;0.00;0.00;0.62;0.00;0.00;0.62;2.53;1.20;;;23.90;21.80;;;;;;2265034;61;20820;-58
2022/04/16 06:48:57;0.00;0.00;0.62;0.00;0.00;0.62;2.00;1.40;;;23.90;21.80;;;;;;2308586;53;20950;-57
2022/04/16 06:51:42;0.00;0.00;0.62;0.00;0.00;0.62;1.63;1.10;;;23.90;21.90;;;;;;2265089;61;20811;-55
2022/04/16 06:54:28;0.00;0.00;0.62;0.00;0.00;0.62;1.80;1.10;;;23.90;21.80;;;;;;2265385;61;20363;-54
2022/04/16 06:57:13;0.00;0.00;0.62;0.00;0.00;0.62;2.63;1.30;;;23.90;21.80;;;;;;2265062;61;20367;-60
2022/04/16 06:59:57;0.00;0.00;0.62;0.00;0.00;0.62;2.30;1.23;;;23.80;21.80;;;;;;2264119;61;20417;-58
2022/04/16 07:02:41;0.00;0.00;0.62;0.00;0.00;0.62;1.97;1.17;;;23.80;21.70;;;;;;2265272;61;20379;-55
2022/04/16 07:05:26;0.00;0.00;0.62;0.00;0.00;0.62;3.73;1.37;;;23.80;22.30;;;;;;2264827;61;20348;-59
2022/04/16 07:08:10;0.00;0.00;0.62;0.00;0.00;0.62;2.80;1.30;;;23.80;21.70;;;;;;2265046;61;20375;-58
2022/04/16 07:10:56;0.00;0.00;0.62;0.00;0.00;0.62;2.00;1.10;;;23.80;21.70;;;;;;2265037;61;20487;-56
2022/04/16 07:13:41;0.00;0.00;0.62;0.00;0.00;0.62;2.37;1.33;;;23.80;21.70;;;;;;2264545;61;20364;-59
2022/04/16 07:16:25;0.00;0.00;0.62;0.00;0.00;0.62;2.70;1.50;;;23.80;21.70;;;;;;2284556;61;20394;-59
2022/04/16 07:19:09;0.00;0.00;0.62;0.00;0.00;0.62;2.43;1.30;;;23.80;21.80;;;;;;2264627;61;20487;-57
2022/04/16 07:21:55;0.00;0.00;0.62;0.00;0.00;0.62;1.90;1.10;;;23.80;21.80;;;;;;2264808;61;20923;-62
2022/04/16 07:24:42;0.00;0.00;0.62;0.00;0.00;0.62;3.30;1.50;;;23.80;21.90;;;;;;2261582;61;20355;-64
2022/04/16 07:27:29;0.00;0.00;0.62;0.00;0.00;0.62;3.83;1.27;;;23.80;22.00;;;;;;2263558;61;20962;-63
2022/04/16 07:30:13;0.00;0.00;0.62;0.00;0.00;0.62;1.83;1.20;;;23.80;22.00;;;;;;2261257;61;20388;-62
2022/04/16 07:32:58;0.00;0.00;0.62;0.00;0.00;0.62;1.60;1.10;;;23.80;22.00;;;;;;2264805;61;20380;-60
2022/04/16 07:35:43;0.00;0.00;0.62;0.00;0.00;0.62;2.83;1.67;;;23.80;22.10;;;;;;2264262;61;20926;-62
2022/04/16 07:38:28;0.00;0.00;0.62;0.00;0.00;0.62;1.90;1.10;;;23.90;22.20;;;;;;2264866;61;20406;-64
2022/04/16 07:41:13;0.00;0.00;0.62;0.00;0.00;0.62;2.30;1.10;;;23.80;22.10;;;;;;2264687;61;20384;-64
2022/04/16 07:44:03;0.00;0.00;0.62;0.00;0.00;0.62;1.80;0.90;;;23.90;22.20;;;;;;2264589;61;20360;-60
2022/04/16 07:46:47;0.00;0.00;0.62;0.00;0.00;0.62;1.63;1.10;;;23.90;22.20;;;;;;2264912;61;20900;-58
2022/04/16 07:49:32;0.00;0.00;0.62;0.00;0.00;0.62;2.93;1.07;;;23.90;22.30;;;;;;2263844;61;20406;-63
2022/04/16 07:52:16;0.00;0.00;0.62;0.00;0.00;0.62;1.50;0.90;;;23.90;22.30;;;;;;2264798;61;20392;-60
2022/04/16 07:55:01;0.00;0.00;0.62;0.00;0.00;0.62;1.40;0.90;;;23.90;22.30;;;;;;2265068;61;20900;-61
2022/04/16 07:57:47;0.00;0.00;0.62;0.00;0.00;0.62;1.40;0.83;;;23.90;22.30;;;;;;2263765;61;20367;-63
2022/04/16 08:00:32;0.00;0.00;0.62;0.00;0.00;0.62;1.50;1.00;;;23.90;22.30;;;;;;2265011;61;20402;-59
2022/04/16 08:03:17;0.00;0.00;0.62;0.00;0.00;0.62;2.20;0.97;;;23.90;22.30;;;;;;2260926;61;20422;-60
2022/04/16 08:06:02;0.00;0.00;0.62;0.00;0.00;0.62;1.63;0.83;;;24.00;22.40;;;;;;2264593;61;20364;-59
2022/04/16 08:08:47;0.00;0.00;0.62;0.00;0.00;0.62;2.20;1.00;;;23.90;22.30;;;;;;2264676;61;20356;-61
2022/04/16 08:11:33;0.00;0.00;0.62;0.00;0.00;0.62;1.70;0.90;;;24.00;22.40;;;;;;2264269;61;20472;-61
2022/04/16 08:14:20;0.00;0.00;0.62;0.00;0.00;0.62;1.50;0.90;;;24.00;22.40;;;;;;2264971;61;20370;-63
2022/04/16 08:17:07;0.00;0.00;0.62;0.00;0.00;0.62;1.70;1.07;;;24.00;22.40;;;;;;2265056;61;20360;-60
2022/04/16 08:19:53;0.00;0.00;0.62;0.00;0.00;0.62;1.50;0.87;;;24.00;22.40;;;;;;2263754;61;20371;-61
2022/04/16 08:22:40;0.00;0.00;0.62;0.00;0.00;0.62;1.40;0.97;;;24.00;22.40;;;;;;2264763;61;20395;-64
2022/04/16 08:28:09;0.00;0.00;0.62;0.00;0.00;0.62;1.40;0.80;;;24.00;22.40;;;;;;2260374;61;20356;-62
2022/04/16 08:30:54;0.00;0.00;0.62;0.00;0.00;0.62;1.40;0.90;;;24.10;22.50;;;;;;2264929;61;20368;-64
2022/04/16 08:33:40;0.00;0.00;0.62;0.00;0.00;0.62;1.57;0.80;;;24.10;22.50;;;;;;2264163;61;20364;-63
2022/04/16 08:36:25;0.00;0.00;0.62;0.00;0.00;0.62;1.90;1.07;;;24.10;22.50;;;;;;2264740;61;20410;-63
2022/04/16 08:39:10;0.00;0.00;0.62;0.00;0.00;0.62;1.40;1.00;;;24.10;22.40;;;;;;2264737;61;20448;-60
2022/04/16 08:41:56;0.00;0.00;0.62;0.00;0.00;0.62;1.60;0.80;;;24.10;22.40;;;;;;2263900;61;20384;-62
2022/04/16 08:44:41;0.00;0.00;0.62;0.00;0.00;0.62;1.30;0.80;;;24.10;22.40;;;;;;2261513;61;20363;-62
2022/04/16 08:47:25;0.00;0.00;0.62;0.00;0.00;0.62;1.50;0.90;;;24.10;22.40;;;;;;2264787;61;20411;-62
2022/04/16 08:50:13;0.00;0.00;0.62;0.00;0.00;0.62;1.60;0.90;;;24.20;22.50;;;;;;2264177;61;21030;-60
2022/04/16 08:52:59;0.00;0.00;0.62;0.00;0.00;0.62;1.50;0.90;;;24.20;22.50;;;;;;2264776;61;20403;-62
2022/04/16 08:55:43;0.00;0.00;0.62;0.00;0.00;0.62;2.37;0.90;;;24.20;22.40;;;;;;2264144;61;20356;-60
2022/04/16 08:58:29;0.00;0.00;0.62;0.00;0.00;0.62;2.00;0.87;;;24.20;22.40;;;;;;2264412;61;20364;-61
2022/04/16 09:01:16;0.00;0.00;0.62;0.00;0.00;0.62;1.50;0.90;;;24.20;22.40;;;;;;2264643;61;20384;-64
2022/04/16 09:04:00;0.00;0.00;0.62;0.00;0.00;0.62;1.37;0.73;;;24.20;22.40;;;;;;2263895;61;20415;-65
2022/04/16 09:06:57;0.00;0.00;0.62;0.00;0.00;0.62;1.70;0.90;;;24.30;22.50;;;;;;2264823;61;20522;-64
2022/04/16 09:09:42;0.00;0.00;0.62;0.00;0.00;0.62;1.30;0.90;;;24.30;22.50;;;;;;2260792;61;20368;-63
2022/04/16 09:12:27;0.00;0.00;0.62;0.00;0.00;0.62;1.63;1.07;;;24.30;22.50;;;;;;2264189;61;20819;-60
2022/04/16 09:15:13;0.00;0.00;0.62;0.00;0.00;0.62;1.40;0.70;;;24.30;22.50;;;;;;2264862;61;20364;-62
2022/04/16 09:18:00;0.00;0.00;0.62;0.00;0.00;0.62;1.47;0.90;;;24.30;22.50;;;;;;2263705;61;20360;-64
2022/04/16 09:20:45;0.00;0.00;0.62;0.00;0.00;0.62;1.53;0.90;;;24.30;22.50;;;;;;2264848;61;20444;-62
2022/04/16 09:23:31;0.00;0.00;0.62;0.00;0.00;0.62;1.97;1.00;;;24.30;22.50;;;;;;2264836;61;20908;-63
2022/04/16 09:26:26;0.00;0.00;0.62;0.00;0.00;0.62;1.50;0.80;;;24.30;22.50;;;;;;2263789;61;20368;-59
2022/04/16 09:29:14;0.00;0.00;0.62;0.00;0.00;0.62;1.50;0.70;;;24.40;22.60;;;;;;2264290;61;20356;-63
2022/04/16 09:31:58;0.00;0.00;0.62;0.00;0.00;0.62;1.50;0.87;;;24.40;22.50;;;;;;2264299;61;20392;-63
2022/04/16 09:34:47;0.00;0.00;0.62;0.00;0.00;0.62;1.30;0.70;;;24.40;22.50;;;;;;2264212;61;20359;-61
2022/04/16 09:37:33;0.00;0.00;0.62;0.00;0.00;0.62;2.00;0.90;;;24.40;22.50;;;;;;2264631;61;20376;-64
2022/04/16 09:40:21;0.00;0.00;0.62;0.00;0.00;0.62;1.70;0.83;;;24.40;22.50;;;;;;2264094;61;20399;-64
2022/04/16 09:43:07;0.00;0.00;0.62;0.00;0.00;0.62;1.43;0.80;;;24.50;22.60;;;;;;2264424;61;20769;-63
2022/04/16 09:45:52;0.00;0.00;0.62;0.00;0.00;0.62;1.47;0.63;;;24.50;22.60;;;;;;2264696;61;20825;-60
2022/04/16 09:48:37;0.00;0.00;0.62;0.00;0.00;0.62;1.50;1.00;;;24.50;22.60;;;;;;2263450;61;20367;-62
2022/04/16 09:51:24;0.00;0.00;0.62;0.00;0.00;0.62;1.40;0.70;;;24.50;22.60;;;;;;2256757;61;20811;-63
2022/04/16 09:54:09;0.00;0.00;0.62;0.00;0.00;0.62;1.50;0.90;;;24.50;22.60;;;;;;2264374;61;20452;-65
2022/04/16 09:57:01;0.00;0.00;0.62;0.00;0.00;0.62;1.60;0.90;;;24.50;22.60;;;;;;2263794;61;20410;-62
2022/04/16 09:59:50;0.00;0.00;0.62;0.00;0.00;0.62;1.53;0.90;;;24.50;22.60;;;;;;2264037;61;20368;-63
2022/04/16 10:02:35;0.00;0.00;0.62;0.00;0.00;0.62;1.73;0.80;;;24.60;22.70;;;;;;2263553;61;20376;-64
2022/04/16 10:05:21;0.00;0.00;0.62;0.00;0.00;0.62;1.20;0.60;;;24.60;22.70;;;;;;2264652;61;20413;-61
2022/04/16 10:08:07;0.00;0.00;0.62;0.00;0.00;0.62;1.30;0.70;;;24.60;22.70;;;;;;2264050;61;20898;-67
2022/04/16 10:10:54;0.00;0.00;0.62;0.00;0.00;0.62;1.50;0.80;;;24.60;22.70;;;;;;2263735;61;20379;-61
2022/04/16 10:13:48;0.00;0.00;0.62;0.00;0.00;0.62;1.30;0.70;;;24.60;22.70;;;;;;2264570;61;20788;-59
2022/04/16 10:16:46;0.00;0.00;0.62;0.00;0.00;0.62;1.60;0.83;;;24.70;22.80;;;;;;2264128;61;20482;-62
2022/04/16 10:19:38;0.00;0.00;0.62;0.00;0.00;0.62;1.50;0.80;;;24.70;22.70;;;;;;2263955;61;20383;-62
2022/04/16 10:22:24;0.00;0.00;0.62;0.00;0.00;0.62;1.20;0.70;;;24.70;22.70;;;;;;2264761;61;20411;-60
2022/04/16 10:25:09;0.00;0.00;0.62;0.00;0.00;0.62;1.70;0.80;;;24.70;22.70;;;;;;2263667;61;20395;-62
2022/04/16 10:28:02;0.00;0.00;0.62;0.00;0.00;0.62;1.40;0.77;;;24.80;22.80;;;;;;2264327;61;20371;-58
2022/04/16 10:30:52;0.00;0.00;0.62;0.00;0.00;0.62;1.20;0.60;;;24.80;22.80;;;;;;2264581;61;20383;-61
2022/04/16 10:33:37;0.00;0.00;0.62;0.00;0.00;0.62;1.50;0.80;;;24.80;22.80;;;;;;2264059;61;20896;-61
2022/04/16 10:36:26;0.00;0.00;0.62;0.00;0.00;0.62;1.57;0.80;;;24.80;22.80;;;;;;2264698;61;20363;-62
2022/04/16 10:39:15;0.00;0.00;0.62;0.00;0.00;0.62;1.20;0.70;;;24.80;22.80;;;;;;2263842;61;20363;-63
2022/04/16 10:42:02;0.00;0.00;0.62;0.00;0.00;0.62;1.50;0.80;;;24.90;22.90;;;;;;2264368;61;20427;-63
2022/04/16 10:44:48;0.00;0.00;0.62;0.00;0.00;0.62;1.40;0.80;;;24.90;22.90;;;;;;2264596;61;20363;-61
2022/04/16 10:47:38;0.00;0.00;0.62;0.00;0.00;0.62;1.20;0.67;;;24.90;22.90;;;;;;2263880;61;20502;-62
2022/04/16 10:50:23;0.00;0.00;0.62;0.00;0.00;0.62;1.43;0.73;;;25.00;22.90;;;;;;2264627;61;20429;-64
2022/04/16 10:53:08;0.00;0.00;0.62;0.00;0.00;0.62;1.30;0.70;;;25.00;23.00;;;;;;2262931;61;20383;-59
2022/04/16 10:55:53;0.00;0.00;0.62;0.00;0.00;0.62;2.60;0.70;;;25.00;23.00;;;;;;2263687;61;20387;-58
2022/04/16 10:58:40;0.00;0.00;0.62;0.00;0.00;0.62;1.20;0.67;;;25.00;23.00;;;;;;2263831;61;20410;-56
2022/04/16 11:01:27;0.00;0.00;0.62;0.00;0.00;0.62;1.27;0.70;;;25.10;23.10;;;;;;2263564;61;20421;-59
2022/04/16 11:04:15;0.00;0.00;0.62;0.00;0.00;0.62;2.50;1.00;;;25.10;23.10;;;;;;2264134;61;20459;-60
2022/04/16 11:07:01;0.00;0.00;0.62;0.00;0.00;0.62;1.40;0.70;;;25.10;23.10;;;;;;2264269;61;20364;-57
2022/04/16 11:09:50;0.00;0.00;0.62;0.00;0.00;0.62;1.60;0.73;;;25.20;23.20;;;;;;2259817;61;20939;-57